»·PEaware :: QXE2892 KMFR-KSEA

QXE2892 :: KMFR-KSEA

FLIGHT INFORMATION

Flight Status: Arrived
Operator:
Horizon Air
More flights by this operator :: More flights under this callsign
Pilot: Andrew G. (414)
Aircraft: DEHAVILLAND DASH 8 400
(DH8D)
More flights by this aircraft type
Origin: KMFR Rogue Valley Intl-Medford
United States
Destination: KSEA Seattle-Tacoma Intl
United States
More flights between these airports :: More routes between these airports
Route: OED RENAA BTG KRIEG HAWKZ7
File this flight plan on PilotEdge
Remarks: RMK / SIMBRIEF
Altitude:
(Current/Filed)
22,000ft
Speed:
(Current/Filed)
325kts
Departed: 27-Aug-20 08:41 PM
Arrived: 27-Aug-20 11:49 PM
Distance/Time
Traveled:
305nm/3:08
Distance/Time
To Go:
Arrived

Flight Plot

Page will automatically refresh every two minutes.

Flight plan parsing failed; only flown route is shown


Map Options




Map Legend


Flown Route
Filed Route
Departure Airport
Arrival Airport
Navaid (VOR, NDB)
Fix

Horizontal Profiles

Position Reports

Time Latitude Longitude Heading Altitude Ground
Speed
27-Aug-20 19:40 42.368120 -122.873016 249 1342ft 0kts
27-Aug-20 19:41 42.368120 -122.873016 249 1342ft 0kts
27-Aug-20 19:42 42.368120 -122.873016 249 1342ft 0kts
27-Aug-20 19:43 42.368120 -122.873016 249 1342ft 0kts
27-Aug-20 19:44 42.368120 -122.873016 249 1342ft 0kts
27-Aug-20 19:45 42.368120 -122.873016 249 1342ft 0kts
27-Aug-20 19:46 42.368120 -122.873016 249 1342ft 0kts
27-Aug-20 19:47 42.368120 -122.873016 249 1342ft 0kts
27-Aug-20 19:48 42.368120 -122.873016 249 1342ft 0kts
27-Aug-20 19:49 42.368120 -122.873016 249 1342ft 0kts
27-Aug-20 19:50 42.368120 -122.873016 249 1342ft 0kts
27-Aug-20 19:51 42.368120 -122.873016 249 1342ft 0kts
27-Aug-20 19:52 42.368120 -122.873016 249 1342ft 0kts
27-Aug-20 19:53 42.368120 -122.873016 249 1342ft 0kts
27-Aug-20 20:00 42.368120 -122.873016 249 1342ft 0kts
27-Aug-20 20:01 42.368120 -122.873016 249 1342ft 0kts
27-Aug-20 20:02 42.368120 -122.873016 249 1342ft 0kts
27-Aug-20 20:03 42.368120 -122.873016 249 1342ft 0kts
27-Aug-20 20:04 42.368120 -122.873016 249 1342ft 0kts
27-Aug-20 20:05 42.368120 -122.873016 249 1342ft 0kts
27-Aug-20 20:06 42.368120 -122.873016 249 1342ft 0kts
27-Aug-20 20:07 42.368120 -122.873016 249 1342ft 0kts
27-Aug-20 20:08 42.368120 -122.873016 249 1342ft 0kts
27-Aug-20 20:10 42.368120 -122.873016 249 1342ft 0kts
27-Aug-20 20:11 42.368120 -122.873016 249 1342ft 0kts
27-Aug-20 20:12 42.368120 -122.873016 249 1342ft 0kts
27-Aug-20 20:13 42.368120 -122.873016 249 1342ft 0kts
27-Aug-20 20:14 42.368120 -122.873016 249 1342ft 0kts
27-Aug-20 20:15 42.368120 -122.873016 249 1342ft 0kts
27-Aug-20 20:16 42.368120 -122.873016 249 1342ft 0kts
27-Aug-20 20:17 42.368120 -122.873016 249 1342ft 0kts
27-Aug-20 20:18 42.368120 -122.873016 249 1342ft 0kts
27-Aug-20 20:19 42.368120 -122.873016 249 1342ft 0kts
27-Aug-20 20:20 42.368120 -122.873016 249 1342ft 0kts
27-Aug-20 20:21 42.368120 -122.873016 249 1342ft 0kts
27-Aug-20 20:22 42.368120 -122.873016 249 1342ft 0kts
27-Aug-20 20:23 42.368120 -122.873016 249 1342ft 0kts
27-Aug-20 20:24 42.368120 -122.873016 249 1342ft 0kts
27-Aug-20 20:25 42.368120 -122.873016 249 1342ft 0kts
27-Aug-20 20:26 42.368120 -122.873016 249 1342ft 0kts
27-Aug-20 20:27 42.368237 -122.872585 248 1342ft 2kts
27-Aug-20 20:28 42.368521 -122.871886 180 1342ft 1kts
27-Aug-20 20:28 42.368802 -122.872028 158 1342ft 0kts
27-Aug-20 20:29 42.368802 -122.872028 158 1342ft 0kts
27-Aug-20 20:31 42.368802 -122.872028 158 1342ft 0kts
27-Aug-20 20:31 42.368802 -122.872028 158 1342ft 0kts
27-Aug-20 20:32 42.368802 -122.872028 158 1342ft 0kts
27-Aug-20 20:34 42.368774 -122.872014 158 1342ft 2kts
27-Aug-20 20:34 42.367879 -122.871017 159 1342ft 9kts
27-Aug-20 20:35 42.364590 -122.869308 160 1342ft 11kts
27-Aug-20 20:36 42.363532 -122.868427 72 1342ft 0kts
27-Aug-20 20:37 42.363532 -122.868427 72 1342ft 0kts
27-Aug-20 20:38 42.363532 -122.868427 72 1342ft 0kts
27-Aug-20 20:39 42.364005 -122.867430 358 1342ft 6kts
27-Aug-20 20:40 42.377121 -122.878154 332 1490ft 128kts
27-Aug-20 20:41 42.415468 -122.892051 342 3363ft 151kts
27-Aug-20 20:42 42.455881 -122.909163 342 5309ft 149kts
27-Aug-20 20:43 42.491836 -122.890949 84 6507ft 190kts
27-Aug-20 20:44 42.452310 -122.841122 161 6287ft 215kts
27-Aug-20 20:45 42.399645 -122.823674 171 4531ft 184kts
27-Aug-20 20:46 42.357859 -122.801434 147 3746ft 145kts
27-Aug-20 20:47 42.323205 -122.778891 198 3708ft 136kts
27-Aug-20 20:48 42.315385 -122.825367 272 3350ft 139kts
27-Aug-20 20:49 42.340504 -122.854967 336 2055ft 120kts
27-Aug-20 20:50 42.369365 -122.870420 332 1342ft 75kts
27-Aug-20 20:51 42.371148 -122.874237 196 1342ft 3kts
27-Aug-20 20:52 42.370689 -122.874208 176 1342ft 0kts
27-Aug-20 20:53 42.370689 -122.874208 176 1342ft 0kts
27-Aug-20 21:05 42.368131 -122.872976 249 1342ft 0kts
27-Aug-20 21:06 42.368131 -122.872977 249 1342ft 0kts
27-Aug-20 21:07 42.368131 -122.872977 249 1342ft 0kts
27-Aug-20 21:08 42.368131 -122.872977 249 1342ft 0kts
27-Aug-20 21:09 42.368131 -122.872977 249 1342ft 0kts
27-Aug-20 21:10 42.368131 -122.872977 249 1342ft 0kts
27-Aug-20 21:11 42.368131 -122.872977 249 1342ft 0kts
27-Aug-20 21:12 42.368131 -122.872977 249 1342ft 0kts
27-Aug-20 21:13 42.608183 -122.723885 249 2019ft 34091kts
27-Aug-20 21:14 42.368120 -122.873016 249 1342ft 0kts
27-Aug-20 21:15 42.368120 -122.873016 249 1342ft 0kts
27-Aug-20 21:16 42.368120 -122.873016 249 1342ft 0kts
27-Aug-20 21:17 42.368155 -122.872883 250 1342ft 2kts
27-Aug-20 21:18 42.368386 -122.872080 248 1342ft 2kts
27-Aug-20 21:19 42.368802 -122.872028 158 1342ft 0kts
27-Aug-20 21:20 42.368802 -122.872028 158 1342ft 0kts
27-Aug-20 21:21 42.368803 -122.872029 158 1342ft 0kts
27-Aug-20 21:22 42.368804 -122.872030 158 1342ft 0kts
27-Aug-20 21:23 42.368804 -122.872030 158 1342ft 0kts
27-Aug-20 21:49 42.368120 -122.873016 249 1342ft 0kts
27-Aug-20 21:50 42.368120 -122.873016 249 1342ft 0kts
27-Aug-20 21:51 42.368120 -122.873016 249 1342ft 0kts
27-Aug-20 21:52 42.368120 -122.873016 249 1342ft 0kts
27-Aug-20 21:53 42.368120 -122.873016 249 1342ft 0kts
27-Aug-20 21:54 42.368120 -122.873016 249 1342ft 0kts
27-Aug-20 21:55 42.368120 -122.873016 249 1342ft 0kts
27-Aug-20 21:56 42.368120 -122.873016 249 1342ft 0kts
27-Aug-20 21:57 42.368120 -122.873016 249 1342ft 0kts
27-Aug-20 21:58 42.368120 -122.873016 249 1342ft 0kts
27-Aug-20 21:59 42.368120 -122.873016 249 1342ft 0kts
27-Aug-20 22:00 42.368120 -122.873016 249 1342ft 0kts
27-Aug-20 22:01 42.368120 -122.873016 249 1342ft 0kts
27-Aug-20 22:02 42.368120 -122.873016 249 1342ft 0kts
27-Aug-20 22:03 42.368120 -122.873016 249 1342ft 0kts
27-Aug-20 22:04 42.368120 -122.873016 249 1342ft 0kts
27-Aug-20 22:05 42.368120 -122.873016 249 1342ft 0kts
27-Aug-20 22:06 42.368120 -122.873016 249 1342ft 0kts
27-Aug-20 22:07 42.368120 -122.873016 249 1342ft 0kts
27-Aug-20 22:09 42.368120 -122.873016 249 1342ft 0kts
27-Aug-20 22:10 42.368120 -122.873016 249 1342ft 0kts
27-Aug-20 22:11 42.368120 -122.873016 249 1342ft 0kts
27-Aug-20 22:12 42.368120 -122.873016 249 1342ft 0kts
27-Aug-20 22:13 42.368120 -122.873016 249 1342ft 0kts
27-Aug-20 22:14 42.368120 -122.873016 249 1342ft 0kts
27-Aug-20 22:15 42.368120 -122.873016 249 1342ft 0kts
27-Aug-20 22:16 42.368120 -122.873016 249 1342ft 0kts
27-Aug-20 22:17 42.368120 -122.873016 249 1342ft 0kts
27-Aug-20 22:18 42.368120 -122.873016 249 1342ft 0kts
27-Aug-20 22:19 42.368120 -122.873016 249 1342ft 0kts
27-Aug-20 22:20 42.368120 -122.873016 249 1342ft 0kts
27-Aug-20 22:21 42.368120 -122.873016 249 1342ft 0kts
27-Aug-20 22:22 42.368120 -122.873016 249 1342ft 0kts
27-Aug-20 22:23 42.368120 -122.873016 249 1342ft 0kts
27-Aug-20 22:24 42.368138 -122.872947 250 1342ft 2kts
27-Aug-20 22:25 42.368368 -122.872141 248 1342ft 2kts
27-Aug-20 22:26 42.368802 -122.872028 158 1342ft 0kts
27-Aug-20 22:26 42.368802 -122.872028 158 1342ft 0kts
27-Aug-20 22:28 42.368802 -122.872028 158 1342ft 0kts
27-Aug-20 22:28 42.368802 -122.872028 158 1342ft 0kts
27-Aug-20 22:29 42.368802 -122.872028 158 1342ft 0kts
27-Aug-20 22:31 42.368772 -122.872013 158 1342ft 1kts
27-Aug-20 22:31 42.366951 -122.870541 158 1342ft 20kts
27-Aug-20 22:32 42.363522 -122.868482 85 1342ft 6kts
27-Aug-20 22:33 42.363540 -122.868386 74 1342ft 0kts
27-Aug-20 22:34 42.363603 -122.868055 76 1342ft 4kts
27-Aug-20 22:35 42.364105 -122.867538 338 1342ft 0kts
27-Aug-20 22:36 42.381500 -122.876702 339 1658ft 141kts
27-Aug-20 22:37 42.420792 -122.898732 328 3901ft 162kts
27-Aug-20 22:38 42.469357 -122.913398 353 5824ft 193kts
27-Aug-20 22:39 42.521707 -122.892537 356 7717ft 200kts
27-Aug-20 22:40 42.575257 -122.912046 306 9598ft 208kts
27-Aug-20 22:41 42.552864 -122.970606 174 11287ft 220kts
27-Aug-20 22:42 42.499154 -122.930380 144 12841ft 223kts
27-Aug-20 22:43 42.444078 -122.931896 235 13968ft 228kts
27-Aug-20 22:44 42.465946 -122.999118 349 15170ft 231kts
27-Aug-20 22:45 42.526463 -122.970613 22 16341ft 233kts
27-Aug-20 22:46 42.586298 -122.934335 21 17414ft 236kts
27-Aug-20 22:47 42.646998 -122.897546 21 18398ft 239kts
27-Aug-20 22:48 42.709395 -122.859783 21 19314ft 241kts
27-Aug-20 22:49 42.773501 -122.820985 21 19966ft 254kts
27-Aug-20 22:50 42.842475 -122.779308 21 20019ft 283kts
27-Aug-20 22:51 42.916107 -122.734782 24 20022ft 303kts
27-Aug-20 22:52 42.995153 -122.686447 25 20026ft 315kts
27-Aug-20 22:53 43.075330 -122.637349 23 20035ft 318kts
27-Aug-20 22:54 43.157327 -122.586887 23 20040ft 324kts
27-Aug-20 22:55 43.239791 -122.536096 23 20047ft 327kts
27-Aug-20 22:56 43.322660 -122.484863 23 20060ft 329kts
27-Aug-20 22:57 43.406199 -122.432982 23 20065ft 330kts
27-Aug-20 22:58 43.495216 -122.414664 355 20070ft 328kts
27-Aug-20 22:59 43.586385 -122.421679 356 20071ft 328kts
27-Aug-20 23:00 43.670490 -122.427899 356 20071ft 329kts
27-Aug-20 23:01 43.762269 -122.434929 356 20070ft 329kts
27-Aug-20 23:02 43.853890 -122.441849 356 20069ft 329kts
27-Aug-20 23:03 43.945557 -122.448948 356 20073ft 329kts
27-Aug-20 23:04 44.037194 -122.455895 356 20072ft 330kts
27-Aug-20 23:05 44.128786 -122.463040 356 20071ft 329kts
27-Aug-20 23:06 44.220295 -122.470068 356 20073ft 329kts
27-Aug-20 23:07 44.311329 -122.477146 356 20070ft 329kts
27-Aug-20 23:08 44.402877 -122.484274 356 20085ft 329kts
27-Aug-20 23:09 44.494445 -122.491407 356 20083ft 329kts
27-Aug-20 23:10 44.586113 -122.498536 356 20082ft 329kts
27-Aug-20 23:11 44.675499 -122.505558 355 20079ft 329kts
27-Aug-20 23:12 44.767381 -122.512827 355 20073ft 329kts
27-Aug-20 23:13 44.859024 -122.520045 355 20074ft 329kts
27-Aug-20 23:14 44.950395 -122.527317 355 20075ft 329kts
27-Aug-20 23:15 45.039976 -122.534412 355 20079ft 329kts
27-Aug-20 23:16 45.131433 -122.541689 355 20080ft 330kts
27-Aug-20 23:17 45.222694 -122.548960 355 20081ft 330kts
27-Aug-20 23:18 45.314088 -122.556383 355 20079ft 330kts
27-Aug-20 23:19 45.403513 -122.563550 355 20077ft 330kts
27-Aug-20 23:20 45.495025 -122.570956 355 20074ft 330kts
27-Aug-20 23:21 45.585225 -122.578265 355 20073ft 329kts
27-Aug-20 23:22 45.676419 -122.585657 354 20071ft 329kts
27-Aug-20 23:23 45.765812 -122.594348 351 20065ft 328kts
27-Aug-20 23:24 45.855816 -122.615862 349 20076ft 327kts
27-Aug-20 23:25 45.945617 -122.636393 349 20080ft 327kts
27-Aug-20 23:26 46.035108 -122.656537 349 20090ft 328kts
27-Aug-20 23:27 46.125981 -122.677463 349 20098ft 328kts
27-Aug-20 23:28 46.218885 -122.698855 349 20106ft 329kts
27-Aug-20 23:29 46.311364 -122.720042 348 20106ft 329kts
27-Aug-20 23:30 46.404501 -122.725553 357 20108ft 331kts
27-Aug-20 23:31 46.493680 -122.728246 356 20110ft 331kts
27-Aug-20 23:32 46.590228 -122.731972 356 18220ft 339kts
27-Aug-20 23:33 46.685600 -122.735397 357 16325ft 333kts
27-Aug-20 23:34 46.777319 -122.726196 16 14547ft 332kts
27-Aug-20 23:35 46.856777 -122.653243 40 12773ft 331kts
27-Aug-20 23:36 46.920312 -122.563358 44 11003ft 286kts
27-Aug-20 23:37 46.970188 -122.487236 45 9549ft 232kts
27-Aug-20 23:38 47.016066 -122.440020 28 8429ft 176kts
27-Aug-20 23:39 47.053876 -122.403283 52 7694ft 144kts
27-Aug-20 23:40 47.096753 -122.361818 19 6721ft 237kts
27-Aug-20 23:41 47.156163 -122.321316 24 5295ft 226kts
27-Aug-20 23:42 47.208711 -122.309954 0 4282ft 164kts
27-Aug-20 23:43 47.255758 -122.309645 359 3670ft 196kts
27-Aug-20 23:44 47.308460 -122.309150 0 2657ft 184kts
27-Aug-20 23:45 47.352545 -122.308826 0 1879ft 138kts
27-Aug-20 23:46 47.388049 -122.308382 0 1229ft 125kts
27-Aug-20 23:47 47.423676 -122.308035 1 586ft 120kts
27-Aug-20 23:48 47.443074 -122.307942 359 440ft 0kts
27-Aug-20 23:49 47.443564 -122.306633 93 440ft 4kts
27-Aug-20 23:50 47.443637 -122.304063 51 440ft 7kts
27-Aug-20 23:51 47.443814 -122.303868 32 440ft 0kts
27-Aug-20 23:52 47.443814 -122.303868 32 440ft 0kts
27-Aug-20 23:53 47.443814 -122.303868 32 440ft 0kts
27-Aug-20 23:54 47.443814 -122.303868 32 440ft 0kts
27-Aug-20 23:55 47.443814 -122.303868 32 440ft 0kts
27-Aug-20 23:56 47.443814 -122.303868 32 440ft 0kts
27-Aug-20 23:57 47.443814 -122.303868 32 440ft 0kts
27-Aug-20 23:58 47.443814 -122.303868 32 440ft 0kts
27-Aug-20 23:59 47.443814 -122.303868 32 440ft 0kts
28-Aug-20 00:00 47.443814 -122.303868 32 440ft 0kts

Navigation Log

Ident Type
Flight plan parsing failed, navigation log unavailable